Terminal Aerodrome Forecast
Issued by NWS Cleveland, OH

Home | Current Version | Previous Version | Text Only | Print | Product List | Glossary Off
Versions: 1 2 3 4 5 6 7 8 9 10 11 12 13 14

943
FTUS41 KCLE 221726
TAFCAK
TAF
KCAK 221726Z 2218/2318 24010KT P6SM SCT040 BKN150
     FM230500 20010KT P6SM -SHRA SCT035 OVC070
     FM230800 20010KT P6SM -SHRA SCT010 OVC015
     FM231300 22012KT 6SM -SHRA VCTS SCT007CB OVC015=

USA.gov is the U.S. government's official web portal to all federal, state and local government web resources and services.